Impacts METAR Board INFO
IDs:

KDCA - Washington/National, VA, US

Updated at: 0943 UTC 20 Nov 2017
Potential Impact None Slight Moderate High
Time19/21Z 19/22Z 19/23Z 20/00Z 20/01Z 20/02Z 20/03Z 20/04Z 20/05Z 20/06Z 20/07Z 20/08Z 20/09Z
VIS10 10 10 10 10 10 10 10 10 10 10 10 10
CIG60 60 70 70 -- 70 70 75 65 60 55 55 55
CoverOVCOVCOVCBKNSCTBKNBKNBKNBKNOVCOVCOVCBKN
FltCatVFRVFRVFRVFRVFRVFRVFRVFRVFRVFRVFRVFRVFR
WX--------------------------
WDir290290280300270290290280320310320280300
WSpd13 15 8 10 10 13 12 13 5 9 5 9 12
WGst20 24 -- -- -- 23 19 20 -- -- -- 20 17
Raw hourly METARs
KDCA 192052Z 29013G20KT 10SM OVC060 09/M03 A2981 RMK AO2 PK WND 30037/1959 SLP095 T00891028 53019
KDCA 192152Z 29015G24KT 10SM OVC060 09/M02 A2984 RMK AO2 SLP104 T00891022
KDCA 192252Z 28008KT 10SM OVC070 08/M04 A2986 RMK AO2 PK WND 30026/2203 SLP112 T00831039
KDCA 192352Z 30010KT 10SM BKN070 08/M03 A2989 RMK AO2 SLP120 T00781033 10111 20078 51025
KDCA 200052Z 27010KT 10SM SCT055 SCT070 08/M03 A2990 RMK AO2 SLP126 T00781028
KDCA 200152Z 29013G23KT 10SM FEW055 BKN070 08/M02 A2993 RMK AO2 SLP134 T00781022
KDCA 200252Z 29012G19KT 10SM BKN070 07/M03 A2995 RMK AO2 SLP140 T00721028 53020
KDCA 200352Z 28013G20KT 10SM BKN075 07/M03 A2997 RMK AO2 SLP149 T00721028
KDCA 200452Z 32005KT 10SM FEW050 BKN065 06/M02 A2998 RMK AO2 SLP152 T00611022 401780061
KDCA 200552Z 31009KT 10SM OVC060 06/M02 A3001 RMK AO2 SLP162 T00611022 10078 20061 53021
KDCA 200652Z 32005KT 10SM BKN055 OVC200 06/M03 A3004 RMK AO2 SLP172 T00611028
KDCA 200752Z 28009G20KT 10SM BKN055 OVC200 06/M05 A3006 RMK AO2 SLP179 T00611050
KDCA 200852Z 30012G17KT 10SM BKN055 BKN200 06/M06 A3007 RMK AO2 SLP182 T00561061 51020